Time;durP1;ratioP1;P1;durP2;ratioP2;P2;SDS_P1;SDS_P2;PMS_P1;PMS_P2;Temp;Humidity;BMP_temperature;BMP_pressure;BME280_temperature;BME280_humidity;BME280_pressure;Samples;Min_cycle;Max_cycle;Signal;HPM_P1;HPM_P2
2022/01/04 00:00:35;;;;;;;5.85;1.92;;;;;;;19.79;39.71;99081.91;2086845;28;20084;-68
2022/01/04 00:01:42;;;;;;;8.75;2.58;;;;;;;19.81;40.02;99082.28;2085927;28;20053;-68
2022/01/04 00:02:47;;;;;;;7.40;2.08;;;;;;;19.80;39.67;99091.69;2086314;28;20075;-67
2022/01/04 00:03:52;;;;;;;5.00;2.30;;;;;;;19.77;39.43;99084.28;2094403;28;20579;-68
2022/01/04 00:05:00;;;;;;;4.80;2.25;;;;;;;19.80;39.75;99088.19;2094683;28;20048;-68
2022/01/04 00:06:03;;;;;;;5.70;2.10;;;;;;;19.85;39.56;99085.78;2093690;28;20063;-67
2022/01/04 00:07:09;;;;;;;6.93;1.67;;;;;;;19.85;39.45;99085.78;2094212;28;20075;-67
2022/01/04 00:08:13;;;;;;;6.07;2.30;;;;;;;19.86;39.43;99094.81;2094772;28;20048;-68
2022/01/04 00:09:18;;;;;;;5.95;1.90;;;;;;;19.84;39.52;99089.72;2094412;28;20872;-67
2022/01/04 00:10:23;;;;;;;4.88;1.85;;;;;;;19.82;39.52;99080.31;2085426;28;20056;-67
2022/01/04 00:11:56;;;;;;;5.72;2.33;;;;;;;19.86;39.56;99097.56;2079429;28;20053;-67
2022/01/04 00:14:25;;;;;;;5.28;1.92;;;;;;;19.85;39.30;99091.28;2077877;28;20045;-68
2022/01/04 00:15:34;;;;;;;7.28;2.40;;;;;;;19.88;39.44;99087.72;2078163;28;20041;-70
2022/01/04 00:16:38;;;;;;;5.65;2.03;;;;;;;19.82;39.38;99091.28;2078542;28;20048;-70
2022/01/04 00:17:43;;;;;;;5.65;2.00;;;;;;;19.77;39.40;99078.00;2085814;28;20695;-69
2022/01/04 00:18:48;;;;;;;4.43;1.70;;;;;;;19.83;39.42;99090.91;2077737;28;20041;-68
2022/01/04 00:19:52;;;;;;;5.90;1.75;;;;;;;19.84;39.24;99084.22;2078085;28;20049;-68
2022/01/04 00:20:56;;;;;;;6.38;1.75;;;;;;;19.79;39.28;99089.34;2086570;28;20215;-67
2022/01/04 00:22:02;;;;;;;5.85;2.10;;;;;;;19.79;39.50;99087.41;2086437;28;20052;-68
2022/01/04 00:23:06;;;;;;;5.60;2.17;;;;;;;19.74;39.14;99082.31;2094361;28;20053;-68
2022/01/04 00:24:12;;;;;;;5.00;2.17;;;;;;;19.74;39.35;99084.28;2094214;28;20048;-69
2022/01/04 00:25:15;;;;;;;5.18;2.30;;;;;;;19.71;39.19;99080.38;2094659;28;20049;-68
2022/01/04 00:26:21;;;;;;;5.63;1.88;;;;;;;19.73;39.29;99078.03;2095051;28;20049;-69
2022/01/04 00:27:24;;;;;;;10.15;1.90;;;;;;;19.75;39.28;99081.13;2085862;28;20053;-71
2022/01/04 00:28:30;;;;;;;5.88;1.80;;;;;;;19.76;39.40;99077.22;2085580;28;20563;-69
2022/01/04 00:29:34;;;;;;;8.55;2.10;;;;;;;19.79;39.39;99076.44;2095103;28;20044;-68
2022/01/04 00:30:43;;;;;;;6.20;2.20;;;;;;;19.80;39.33;99078.00;2094152;28;20048;-68
2022/01/04 00:31:48;;;;;;;6.47;1.92;;;;;;;19.81;39.39;99070.56;2094695;28;20361;-68
2022/01/04 00:32:52;;;;;;;5.88;2.10;;;;;;;19.81;39.31;99074.06;2094566;28;20696;-69
2022/01/04 00:33:56;;;;;;;10.30;2.17;;;;;;;19.80;39.27;99080.72;2084956;28;20445;-67
2022/01/04 00:35:00;;;;;;;4.95;1.80;;;;;;;19.80;39.03;99077.22;2085819;28;20057;-70
2022/01/04 00:36:08;;;;;;;8.13;2.22;;;;;;;19.79;39.24;99068.22;2094863;28;20032;-68
2022/01/04 00:37:12;;;;;;;5.45;2.25;;;;;;;19.81;39.58;99065.06;2093849;28;20060;-68
2022/01/04 00:38:16;;;;;;;5.07;1.83;;;;;;;19.83;39.54;99071.72;2094717;28;20052;-67
2022/01/04 00:39:20;;;;;;;7.70;2.28;;;;;;;19.82;39.28;99070.13;2094664;28;20064;-67
2022/01/04 00:40:25;;;;;;;7.10;2.03;;;;;;;19.78;39.39;99077.59;2085956;28;20076;-68
2022/01/04 00:41:32;;;;;;;6.35;1.65;;;;;;;19.85;39.54;99074.81;2086544;28;20041;-68
2022/01/04 00:42:37;;;;;;;5.70;1.90;;;;;;;19.85;39.38;99071.31;2094527;28;20046;-67
2022/01/04 00:43:45;;;;;;;4.15;1.70;;;;;;;19.86;39.16;99072.88;2095013;28;20509;-68
2022/01/04 00:44:48;;;;;;;6.82;3.42;;;;;;;19.82;39.25;99069.38;2086144;28;20187;-71
2022/01/04 00:45:56;;;;;;;5.18;2.03;;;;;;;19.84;39.33;99070.53;2086696;28;20052;-71
2022/01/04 00:47:00;;;;;;;4.57;1.80;;;;;;;19.87;39.28;99069.75;2094523;28;20490;-70
2022/01/04 00:49:26;;;;;;;4.95;2.10;;;;;;;19.89;39.02;99064.66;2060450;28;20062;-69
2022/01/04 00:50:31;;;;;;;6.70;2.03;;;;;;;19.85;39.17;99063.09;2090496;28;20052;-68
2022/01/04 00:51:36;;;;;;;4.85;1.95;;;;;;;19.80;39.14;99058.81;2094562;28;20048;-69
2022/01/04 00:52:42;;;;;;;6.28;2.22;;;;;;;19.80;39.06;99056.06;2094623;28;20048;-72
2022/01/04 00:53:45;;;;;;;5.07;2.13;;;;;;;19.82;39.12;99055.66;2085337;28;20049;-70
2022/01/04 00:54:50;;;;;;;5.80;1.88;;;;;;;19.83;39.33;99055.28;2085398;28;20080;-68
2022/01/04 00:55:58;;;;;;;5.43;1.90;;;;;;;19.81;38.96;99052.16;2094358;28;20412;-68
2022/01/04 00:57:07;;;;;;;6.30;1.90;;;;;;;19.82;38.99;99047.44;2094368;28;20049;-68
2022/01/04 00:58:10;;;;;;;7.78;2.05;;;;;;;19.84;39.38;99051.34;2094599;28;20056;-68
2022/01/04 00:59:17;;;;;;;4.85;2.00;;;;;;;19.82;38.84;99041.97;2094276;28;20085;-68
2022/01/04 01:00:21;;;;;;;6.18;2.08;;;;;;;19.77;39.07;99045.13;2093961;28;20052;-67
2022/01/04 01:01:27;;;;;;;6.85;1.88;;;;;;;19.77;38.90;99040.44;2085139;28;20049;-66
2022/01/04 01:02:30;;;;;;;5.63;1.90;;;;;;;19.76;38.80;99044.34;2085893;28;20053;-68
2022/01/04 01:03:35;;;;;;;7.78;2.20;;;;;;;19.76;38.81;99038.88;2085636;28;20053;-67
2022/01/04 01:04:41;;;;;;;6.38;1.80;;;;;;;19.75;39.03;99042.00;2086242;28;20053;-68
2022/01/04 01:05:45;;;;;;;7.47;1.90;;;;;;;19.72;39.04;99049.03;2094263;28;20083;-68
2022/01/04 01:08:11;;;;;;;4.93;1.65;;;;;;;19.74;39.02;99037.69;2087117;28;20786;-68
2022/01/04 01:09:21;;;;;;;3.92;1.80;;;;;;;19.76;38.85;99038.06;2095035;28;20064;-68
2022/01/04 01:10:41;;;;;;;5.47;2.03;;;;;;;19.71;38.97;99025.56;2095579;28;20707;-68
2022/01/04 01:11:46;;;;;;;5.68;1.75;;;;;;;19.72;38.90;99029.09;2087913;28;20048;-69
2022/01/04 01:12:49;;;;;;;5.15;1.85;;;;;;;19.72;38.74;99026.34;2088486;28;20051;-68
2022/01/04 01:13:55;;;;;;;4.47;1.80;;;;;;;19.73;38.73;99028.72;2087337;28;20053;-69
2022/01/04 01:14:59;;;;;;;7.15;1.88;;;;;;;19.73;38.80;99028.72;2087220;28;20060;-69
2022/01/04 01:16:07;;;;;;;7.68;1.83;;;;;;;19.73;39.06;99031.44;2088165;28;20076;-69
2022/01/04 01:17:13;;;;;;;5.78;1.88;;;;;;;19.72;38.92;99032.59;2087786;28;20484;-68
2022/01/04 01:18:20;;;;;;;6.30;2.22;;;;;;;19.66;38.85;99023.22;2088677;28;20049;-68
2022/01/04 01:19:23;;;;;;;4.93;1.90;;;;;;;19.73;39.00;99028.72;2088038;28;20487;-68
2022/01/04 01:20:28;;;;;;;5.55;2.00;;;;;;;19.75;38.82;99031.81;2079189;28;20406;-68
2022/01/04 01:21:33;;;;;;;6.57;1.80;;;;;;;19.77;38.94;99043.16;2079061;28;20065;-68
2022/01/04 01:22:36;;;;;;;6.10;1.80;;;;;;;19.80;39.21;99022.41;2087086;28;20055;-66
2022/01/04 01:23:42;;;;;;;4.97;1.73;;;;;;;19.84;38.85;99023.94;2087264;28;20060;-66
2022/01/04 01:24:46;;;;;;;7.30;2.08;;;;;;;19.83;38.59;99027.88;2088547;28;20420;-67
2022/01/04 01:25:52;;;;;;;5.07;1.88;;;;;;;19.81;38.43;99030.22;2087738;28;20052;-67
2022/01/04 01:26:57;;;;;;;4.18;1.98;;;;;;;19.77;38.55;99034.16;2087852;28;20404;-69
2022/01/04 01:28:01;;;;;;;4.97;1.65;;;;;;;19.77;38.71;99040.44;2087415;28;20057;-67
2022/01/04 01:29:09;;;;;;;4.95;1.90;;;;;;;19.74;38.42;99024.78;2087493;28;20056;-68
2022/01/04 01:30:14;;;;;;;5.20;2.00;;;;;;;19.70;38.54;99032.25;2086933;28;20040;-68
2022/01/04 01:31:19;;;;;;;5.30;2.22;;;;;;;19.64;38.26;99028.34;2087772;28;20061;-68
2022/01/04 01:32:25;;;;;;;5.70;2.00;;;;;;;19.60;38.59;99030.31;2087571;28;20049;-69
2022/01/04 01:33:33;;;;;;;5.85;2.20;;;;;;;19.61;38.71;99032.66;2079226;28;20053;-68
2022/01/04 01:34:36;;;;;;;4.97;2.30;;;;;;;19.56;38.55;99021.31;2079943;28;20059;-68
2022/01/04 01:35:41;;;;;;;6.50;2.35;;;;;;;19.54;38.43;99023.66;2087993;28;20052;-68
2022/01/04 01:36:46;;;;;;;3.70;1.83;;;;;;;19.51;38.79;99022.53;2087977;28;20054;-68
2022/01/04 01:37:52;;;;;;;6.97;2.15;;;;;;;19.51;38.77;99021.72;2088084;28;20037;-69
2022/01/04 01:38:59;;;;;;;4.97;1.80;;;;;;;19.54;38.83;99020.94;2078859;28;20057;-68
2022/01/04 01:40:05;;;;;;;4.85;1.60;;;;;;;19.48;38.50;99014.28;2080234;28;20056;-68
2022/01/04 01:41:10;;;;;;;5.47;1.90;;;;;;;19.56;38.94;99022.09;2087412;28;20053;-68
2022/01/04 01:42:16;;;;;;;5.10;2.45;;;;;;;19.53;39.05;99019.38;2088130;28;20057;-68
2022/01/04 01:43:23;;;;;;;5.05;2.50;;;;;;;19.51;38.62;99021.72;2087578;28;20037;-68
2022/01/04 01:44:26;;;;;;;4.35;2.20;;;;;;;19.51;38.84;99016.25;2087171;28;20057;-68
2022/01/04 01:45:33;;;;;;;7.45;3.05;;;;;;;19.53;38.78;99013.91;2078323;28;20053;-68
2022/01/04 01:46:36;;;;;;;5.68;2.40;;;;;;;19.52;38.86;99023.31;2079552;28;20045;-68
2022/01/04 01:47:44;;;;;;;7.35;2.22;;;;;;;19.55;38.85;99011.56;2087985;28;20075;-69
2022/01/04 01:48:50;;;;;;;;;;;;;;;19.52;38.91;99026.03;2079348;28;20049;-68
2022/01/04 01:49:54;;;;;;;6.28;2.20;;;;;;;19.53;38.86;99020.16;2078783;28;20011;-69
2022/01/04 01:51:00;;;;;;;4.38;1.73;;;;;;;19.56;38.99;99013.09;2087427;28;20049;-68
2022/01/04 01:52:06;;;;;;;5.50;2.00;;;;;;;19.57;38.82;99020.13;2087051;28;20045;-68
2022/01/04 01:53:11;;;;;;;5.10;2.22;;;;;;;19.57;38.83;99009.19;2088083;28;20052;-69
2022/01/04 01:54:15;;;;;;;5.32;2.17;;;;;;;19.57;38.78;99009.19;2087458;28;20053;-68
2022/01/04 01:55:21;;;;;;;4.40;1.75;;;;;;;19.58;38.80;99013.50;2088104;28;20373;-67
2022/01/04 01:56:29;;;;;;;6.05;2.25;;;;;;;19.60;38.88;99008.38;2087481;28;20075;-68
2022/01/04 01:57:32;;;;;;;3.60;1.77;;;;;;;19.63;38.88;99010.34;2087358;28;20056;-69
2022/01/04 01:58:37;;;;;;;3.53;1.90;;;;;;;19.62;38.75;99015.03;2087103;28;20060;-69
2022/01/04 01:59:41;;;;;;;4.80;1.75;;;;;;;19.61;38.89;98999.78;2087182;28;20049;-70
2022/01/04 02:00:46;;;;;;;7.88;3.05;;;;;;;19.65;38.61;99005.25;2087689;28;20051;-70
2022/01/04 02:01:51;;;;;;;6.28;1.90;;;;;;;19.67;38.96;99002.91;2087705;28;20053;-69
2022/01/04 02:03:01;;;;;;;6.00;2.00;;;;;;;19.67;38.92;99005.63;2086858;28;20048;-71
2022/01/04 02:04:05;;;;;;;3.83;1.80;;;;;;;19.68;38.94;99005.22;2087384;28;20061;-72
2022/01/04 02:05:10;;;;;;;4.32;1.85;;;;;;;19.68;38.78;99001.72;2086983;28;20056;-72
2022/01/04 02:06:14;;;;;;;4.57;1.70;;;;;;;19.71;38.67;98992.69;2087186;28;20619;-73
2022/01/04 02:07:22;;;;;;;5.32;1.88;;;;;;;19.70;38.54;98991.16;2087711;28;20041;-73
2022/01/04 02:08:28;;;;;;;6.63;2.15;;;;;;;19.70;38.57;98991.16;2087424;28;20060;-73
2022/01/04 02:09:37;;;;;;;4.78;2.20;;;;;;;19.70;38.27;98984.88;2087955;28;20048;-71
2022/01/04 02:10:44;;;;;;;6.03;2.17;;;;;;;19.67;38.59;98973.53;2087685;28;20048;-73
2022/01/04 02:11:48;;;;;;;5.35;1.90;;;;;;;19.65;38.37;98975.88;2095818;28;20051;-73
2022/01/04 02:12:54;;;;;;;5.30;1.70;;;;;;;19.64;38.56;98976.31;2086679;28;20804;-74
2022/01/04 02:13:56;;;;;;;3.85;1.60;;;;;;;19.68;38.74;98977.06;2087394;28;20049;-68
2022/01/04 02:15:01;;;;;;;4.07;1.75;;;;;;;19.67;38.63;98970.81;2095930;28;20703;-67
2022/01/04 02:16:11;;;;;;;4.63;1.98;;;;;;;19.65;38.48;98977.84;2086537;28;20061;-68
2022/01/04 02:17:15;;;;;;;5.85;1.67;;;;;;;19.65;38.53;98972.38;2087348;28;20053;-67
2022/01/04 02:18:24;;;;;;;6.25;2.03;;;;;;;19.63;38.55;98975.50;2095946;28;20053;-67
2022/01/04 02:19:29;;;;;;;4.18;1.70;;;;;;;19.65;38.92;98972.38;2087016;28;20527;-67
2022/01/04 02:20:39;;;;;;;3.10;1.45;;;;;;;19.66;38.45;98973.94;2087213;28;20083;-68
2022/01/04 02:21:43;;;;;;;4.60;1.55;;;;;;;19.67;38.44;98970.03;2095880;28;20052;-66
2022/01/04 02:22:50;;;;;;;6.15;2.00;;;;;;;19.65;38.39;98966.91;2089841;28;20409;-66
2022/01/04 02:23:54;;;;;;;5.47;1.70;;;;;;;19.63;38.38;98971.97;2087052;28;20052;-66
2022/01/04 02:26:21;;;;;;;3.20;1.50;;;;;;;19.65;38.80;98978.63;2081444;28;20057;-67
2022/01/04 02:27:31;;;;;;;5.03;1.52;;;;;;;19.66;38.45;98979.41;2086002;28;20053;-68
2022/01/04 02:28:39;;;;;;;4.72;1.55;;;;;;;19.63;38.41;98982.94;2085856;28;20044;-67
2022/01/04 02:29:42;;;;;;;4.05;1.67;;;;;;;19.65;38.44;98983.34;2087702;28;20481;-67
2022/01/04 02:30:48;;;;;;;6.00;1.60;;;;;;;19.64;38.50;98990.78;2086865;28;20139;-67
2022/01/04 02:31:54;;;;;;;5.38;1.65;;;;;;;19.61;38.26;98988.06;2078369;28;20056;-67
2022/01/04 02:32:59;;;;;;;4.00;1.40;;;;;;;19.60;38.35;98981.00;2069934;28;20045;-67
2022/01/04 02:34:03;;;;;;;3.95;1.30;;;;;;;19.61;38.40;98974.34;2078474;28;20461;-67
2022/01/04 02:35:08;;;;;;;4.72;1.63;;;;;;;19.61;38.32;98977.88;2086580;28;20045;-67
2022/01/04 02:36:18;;;;;;;4.05;1.40;;;;;;;19.61;38.22;98977.88;2087049;28;20056;-67
2022/01/04 02:37:24;;;;;;;4.63;1.63;;;;;;;19.58;38.22;98975.94;2087288;28;20044;-67
2022/01/04 02:38:29;;;;;;;3.67;1.40;;;;;;;19.56;38.36;98980.25;2078789;28;20049;-67
2022/01/04 02:39:35;;;;;;;5.68;1.50;;;;;;;19.54;38.17;98977.91;2079795;28;20485;-67
2022/01/04 02:40:39;;;;;;;5.32;2.35;;;;;;;19.55;38.58;98976.72;2087471;28;20056;-66
2022/01/04 02:41:43;;;;;;;4.50;1.80;;;;;;;19.56;38.22;98981.00;2086509;28;20056;-67
2022/01/04 02:44:10;;;;;;;4.63;1.70;;;;;;;19.56;38.38;98975.53;2087026;28;20057;-67
2022/01/04 02:45:16;;;;;;;3.88;1.40;;;;;;;19.55;38.42;98979.47;2087190;28;20063;-67
2022/01/04 02:46:21;;;;;;;5.60;1.60;;;;;;;19.57;38.75;98979.06;2078454;28;20045;-68
2022/01/04 02:47:26;;;;;;;6.15;1.73;;;;;;;19.59;38.54;98969.25;2079147;28;20548;-70
2022/01/04 02:48:31;;;;;;;5.78;1.60;;;;;;;19.61;38.27;98966.13;2077941;28;20056;-69
2022/01/04 02:49:35;;;;;;;6.18;1.70;;;;;;;19.62;38.16;98978.66;2078849;28;20524;-70
2022/01/04 02:50:41;;;;;;;3.28;1.30;;;;;;;19.63;38.13;98980.97;2087499;28;20057;-70
2022/01/04 02:51:49;;;;;;;6.93;1.48;;;;;;;19.60;38.18;98973.59;2087761;28;20053;-68
2022/01/04 02:52:55;;;;;;;4.65;2.03;;;;;;;19.61;38.38;98971.63;2078926;28;20053;-68
2022/01/04 02:54:01;;;;;;;6.47;1.63;;;;;;;19.60;38.37;98972.78;2071615;28;20053;-70
2022/01/04 02:55:11;;;;;;;4.07;1.40;;;;;;;19.58;38.44;98973.19;2079367;28;20060;-70
2022/01/04 02:56:14;;;;;;;5.10;1.73;;;;;;;19.59;38.33;98963.00;2078786;28;20124;-70
2022/01/04 02:57:19;;;;;;;3.53;1.35;;;;;;;19.61;38.20;98966.13;2078324;28;20097;-69
2022/01/04 02:58:23;;;;;;;4.32;1.45;;;;;;;19.60;38.37;98975.50;2086313;28;20045;-70
2022/01/04 02:59:28;;;;;;;4.97;1.60;;;;;;;19.61;38.56;98961.44;2087531;28;20408;-70
2022/01/04 03:00:33;;;;;;;3.53;1.45;;;;;;;19.60;38.24;98959.09;2087633;28;20053;-70
2022/01/04 03:01:38;;;;;;;5.05;1.60;;;;;;;19.60;38.11;98948.13;2087172;28;20049;-69
2022/01/04 03:02:42;;;;;;;5.13;2.20;;;;;;;19.54;38.44;98960.66;2087270;28;20508;-70
2022/01/04 03:03:47;;;;;;;4.55;1.70;;;;;;;19.57;38.35;98962.63;2078184;28;20187;-70
2022/01/04 03:04:51;;;;;;;3.97;1.50;;;;;;;19.59;38.29;98952.06;2078807;28;20061;-71
2022/01/04 03:05:55;;;;;;;6.03;1.75;;;;;;;19.55;38.26;98956.78;2088033;28;20049;-72
2022/01/04 03:07:01;;;;;;;5.78;1.58;;;;;;;19.56;38.60;98958.31;2087242;28;20053;-71
2022/01/04 03:08:07;;;;;;;4.35;1.58;;;;;;;19.57;38.19;98957.94;2086629;28;20049;-70
2022/01/04 03:09:10;;;;;;;3.55;1.40;;;;;;;19.58;38.30;98955.97;2086676;28;20063;-70
2022/01/04 03:10:16;;;;;;;5.75;1.50;;;;;;;19.56;38.20;98952.84;2086998;28;20064;-70
2022/01/04 03:11:21;;;;;;;5.72;1.52;;;;;;;19.52;38.16;98947.38;2087410;28;20040;-71
2022/01/04 03:12:25;;;;;;;5.75;1.80;;;;;;;19.53;38.37;98953.63;2087889;28;20079;-71
2022/01/04 03:13:31;;;;;;;6.10;1.58;;;;;;;19.52;38.14;98946.63;2087925;28;20249;-71
2022/01/04 03:14:36;;;;;;;3.33;1.50;;;;;;;19.52;38.32;98944.66;2087678;28;20049;-70
2022/01/04 03:15:40;;;;;;;5.53;1.48;;;;;;;19.53;38.20;98945.44;2087199;28;20049;-69
2022/01/04 03:16:46;;;;;;;4.53;1.50;;;;;;;19.52;38.25;98943.88;2087477;28;20075;-69
2022/01/04 03:17:52;;;;;;;3.55;1.50;;;;;;;19.52;38.30;98939.16;2087450;28;20049;-71
2022/01/04 03:19:06;;;;;;;2.78;1.15;;;;;;;19.53;38.22;98939.94;2087733;28;20057;-71
2022/01/04 03:20:28;;;;;;;3.53;1.45;;;;;;;19.52;38.45;98941.91;2084589;28;20049;-71
2022/01/04 03:21:31;;;;;;;3.67;1.35;;;;;;;19.52;38.52;98946.63;2087473;28;20079;-71
2022/01/04 03:22:38;;;;;;;4.45;1.60;;;;;;;19.55;38.36;98937.59;2082212;28;20590;-71
2022/01/04 03:23:43;;;;;;;3.13;1.35;;;;;;;19.53;38.50;98939.94;2087433;28;20041;-71
2022/01/04 03:24:51;;;;;;;5.68;1.58;;;;;;;19.55;38.47;98930.16;2086118;28;20045;-71
2022/01/04 03:25:55;;;;;;;4.88;1.50;;;;;;;19.54;38.35;98927.81;2086577;28;20555;-71
2022/01/04 03:28:23;;;;;;;5.47;1.80;;;;;;;19.57;38.05;98935.22;2089816;28;20508;-71
2022/01/04 03:29:30;;;;;;;7.97;1.98;;;;;;;19.55;38.23;98930.16;2086393;28;20053;-69
2022/01/04 03:30:35;;;;;;;5.05;1.40;;;;;;;19.54;38.27;98925.88;2088063;28;20044;-68
2022/01/04 03:31:41;;;;;;;4.03;1.60;;;;;;;19.51;38.34;98917.66;2094840;28;20047;-68
2022/01/04 03:32:48;;;;;;;7.60;1.50;;;;;;;19.39;38.44;98911.47;2094415;28;20076;-68
2022/01/04 03:33:53;;;;;;;4.47;1.58;;;;;;;19.46;38.61;98932.53;2094806;28;20055;-68
2022/01/04 03:34:57;;;;;;;4.97;1.50;;;;;;;19.44;38.65;98934.88;2095465;28;20048;-68
2022/01/04 03:36:01;;;;;;;5.55;1.55;;;;;;;19.47;38.49;98939.56;2095096;28;20504;-67
2022/01/04 03:37:07;;;;;;;6.63;1.60;;;;;;;19.49;38.64;98929.00;2095328;28;20056;-68
2022/01/04 03:38:12;;;;;;;5.40;1.50;;;;;;;19.50;38.64;98932.53;2086408;28;20480;-68
2022/01/04 03:39:17;;;;;;;4.60;1.50;;;;;;;19.51;38.65;98923.13;2077898;28;20057;-68
2022/01/04 03:40:20;;;;;;;3.88;1.70;;;;;;;19.53;38.69;98926.25;2078170;28;20085;-68
2022/01/04 03:41:26;;;;;;;6.45;1.40;;;;;;;19.52;38.70;98930.19;2086704;28;20053;-68
2022/01/04 03:42:32;;;;;;;4.18;1.45;;;;;;;19.51;38.45;98931.34;2095141;28;20527;-68
2022/01/04 03:43:37;;;;;;;5.20;1.83;;;;;;;19.49;38.70;98929.00;2096161;28;20554;-69
2022/01/04 03:44:41;;;;;;;6.05;1.50;;;;;;;19.51;38.71;98932.16;2095567;28;20045;-68
2022/01/04 03:45:45;;;;;;;5.22;1.65;;;;;;;19.47;38.62;98928.63;2094557;28;20680;-68
2022/01/04 03:46:50;;;;;;;4.07;1.50;;;;;;;19.46;38.79;98920.81;2094778;28;20057;-68
2022/01/04 03:47:53;;;;;;;5.10;1.55;;;;;;;19.46;38.63;98929.81;2086602;28;20052;-68
2022/01/04 03:48:59;;;;;;;4.40;1.52;;;;;;;19.44;38.69;98918.47;2086460;28;20113;-67
2022/01/04 03:50:04;;;;;;;5.55;1.80;;;;;;;19.40;38.73;98923.19;2094621;28;20626;-67
2022/01/04 03:51:09;;;;;;;5.10;1.50;;;;;;;19.44;38.52;98930.19;2094290;28;20064;-68
2022/01/04 03:52:14;;;;;;;4.18;1.50;;;;;;;19.41;38.50;98931.00;2086199;28;20056;-67
2022/01/04 03:53:22;;;;;;;6.32;1.70;;;;;;;19.42;38.63;98927.09;2086913;28;20057;-67
2022/01/04 03:54:27;;;;;;;5.85;1.50;;;;;;;19.42;38.67;98929.81;2094724;28;20049;-67
2022/01/04 03:55:32;;;;;;;5.70;1.77;;;;;;;19.41;38.64;98933.75;2094969;28;20059;-67
2022/01/04 03:56:37;;;;;;;4.85;1.90;;;;;;;19.46;38.85;98934.50;2095204;28;20064;-67
2022/01/04 03:57:42;;;;;;;4.43;1.40;;;;;;;19.43;38.65;98928.63;2094327;28;20049;-67
2022/01/04 03:58:45;;;;;;;4.38;1.50;;;;;;;19.37;38.74;98924.75;2094606;28;20732;-67
2022/01/04 03:59:50;;;;;;;5.55;1.65;;;;;;;19.45;38.76;98928.25;2095014;28;20055;-67
2022/01/04 04:00:54;;;;;;;7.60;1.92;;;;;;;19.43;38.70;98928.63;2095105;28;20049;-69
2022/01/04 04:02:02;;;;;;;6.50;2.60;;;;;;;19.41;38.56;98925.53;2086191;28;20053;-68
2022/01/04 04:03:08;;;;;;;3.22;1.60;;;;;;;19.39;38.86;98922.41;2087968;28;20052;-68
2022/01/04 04:04:13;;;;;;;4.72;1.88;;;;;;;19.41;39.04;98925.53;2086047;28;20057;-68
2022/01/04 04:05:16;;;;;;;5.43;1.70;;;;;;;19.45;39.01;98931.00;2070139;28;20054;-67
2022/01/04 04:06:23;;;;;;;7.45;2.40;;;;;;;19.40;39.01;98923.97;2078217;28;20054;-67
2022/01/04 04:07:26;;;;;;;7.68;2.65;;;;;;;19.43;38.98;98928.63;2086763;28;20056;-67
2022/01/04 04:08:34;;;;;;;7.82;1.52;;;;;;;19.43;39.07;98928.63;2087198;28;20491;-67
2022/01/04 04:09:40;;;;;;;6.13;1.92;;;;;;;19.43;38.82;98928.63;2078109;28;20049;-67
2022/01/04 04:10:47;;;;;;;6.20;1.65;;;;;;;19.44;39.01;98918.47;2071315;28;20506;-67
2022/01/04 04:11:52;;;;;;;7.07;1.92;;;;;;;19.47;38.87;98923.16;2087002;28;20044;-67
2022/01/04 04:12:57;;;;;;;5.75;1.60;;;;;;;19.47;39.04;98927.84;2094641;28;20044;-66
2022/01/04 04:14:03;;;;;;;5.90;1.67;;;;;;;19.43;38.82;98927.88;2094758;28;20057;-67
2022/01/04 04:15:11;;;;;;;5.70;1.60;;;;;;;19.46;39.16;98923.56;2095228;28;20087;-66
2022/01/04 04:16:16;;;;;;;5.63;1.90;;;;;;;19.46;38.96;98931.78;2094690;28;20048;-68
2022/01/04 04:17:20;;;;;;;6.68;1.80;;;;;;;19.44;38.89;98924.72;2095385;28;20408;-67
2022/01/04 04:18:26;;;;;;;4.22;1.65;;;;;;;19.41;39.04;98928.28;2094471;28;20048;-69
2022/01/04 04:19:29;;;;;;;6.70;2.00;;;;;;;19.42;39.02;98910.66;2094687;28;20200;-68
2022/01/04 04:20:37;;;;;;;2.70;1.35;;;;;;;19.40;38.79;98921.22;2094580;28;20063;-68
2022/01/04 04:21:42;;;;;;;6.47;1.73;;;;;;;19.41;39.01;98924.72;2086103;28;20049;-65
2022/01/04 04:22:46;;;;;;;6.25;2.13;;;;;;;19.37;38.92;98927.50;2081278;28;20057;-66
2022/01/04 04:23:53;;;;;;;6.05;1.77;;;;;;;19.39;39.11;98925.16;2086813;28;20711;-66
2022/01/04 04:24:56;;;;;;;6.40;1.80;;;;;;;19.40;39.07;98914.97;2086578;28;20491;-67
2022/01/04 04:26:02;;;;;;;5.85;1.80;;;;;;;19.42;39.17;98931.78;2086079;28;20059;-66
2022/01/04 04:27:07;;;;;;;6.28;1.70;;;;;;;19.41;38.95;98922.00;2086009;28;20057;-66
2022/01/04 04:28:12;;;;;;;5.93;1.83;;;;;;;19.41;38.82;98924.72;2086352;28;20056;-68
2022/01/04 04:29:15;;;;;;;3.80;1.77;;;;;;;19.41;39.01;98925.53;2086698;28;20049;-70
2022/01/04 04:30:20;;;;;;;3.70;1.77;;;;;;;19.41;38.70;98916.53;2086734;28;20065;-71
2022/01/04 04:31:24;;;;;;;4.63;1.58;;;;;;;19.41;38.88;98924.72;2086784;28;20064;-71
2022/01/04 04:32:28;;;;;;;6.03;1.95;;;;;;;19.40;38.63;98914.97;2077869;28;20049;-70
2022/01/04 04:33:30;;;;;;;5.13;1.80;;;;;;;19.39;38.77;98911.47;2078696;28;20568;-70
2022/01/04 04:34:36;;;;;;;4.95;1.65;;;;;;;19.38;39.00;98920.84;2086349;28;20053;-69
2022/01/04 04:35:41;;;;;;;5.65;1.80;;;;;;;19.41;38.75;98913.78;2086672;28;20056;-71
2022/01/04 04:36:47;;;;;;;4.50;1.42;;;;;;;19.41;38.64;98913.78;2086314;28;20052;-71
2022/01/04 04:37:51;;;;;;;3.88;1.80;;;;;;;19.41;38.90;98908.31;2086252;28;20049;-71
2022/01/04 04:39:00;;;;;;;4.75;1.60;;;;;;;19.40;38.98;98913.00;2086375;28;20056;-71
2022/01/04 04:40:08;;;;;;;6.07;1.80;;;;;;;19.41;39.15;98916.53;2086514;28;20053;-71
2022/01/04 04:41:15;;;;;;;3.83;1.60;;;;;;;19.42;39.44;98910.66;2077710;28;20045;-71
2022/01/04 04:42:18;;;;;;;6.25;1.83;;;;;;;19.41;39.07;98906.38;2078491;28;20588;-71
2022/01/04 04:43:23;;;;;;;5.18;1.70;;;;;;;19.42;39.23;98910.66;2086727;28;20056;-70
2022/01/04 04:44:26;;;;;;;5.78;1.90;;;;;;;19.42;39.21;98909.88;2086405;28;20056;-69
2022/01/04 04:45:32;;;;;;;4.97;1.70;;;;;;;19.43;39.00;98906.72;2085990;28;20056;-69
2022/01/04 04:46:35;;;;;;;4.30;1.70;;;;;;;19.43;39.21;98906.72;2087114;28;20045;-69
2022/01/04 04:47:40;;;;;;;5.65;1.70;;;;;;;19.44;38.85;98907.50;2086643;28;20052;-69
2022/01/04 04:48:44;;;;;;;5.18;1.65;;;;;;;19.46;39.01;98910.63;2086368;28;20053;-69
2022/01/04 04:49:50;;;;;;;7.82;2.30;;;;;;;19.46;39.08;98912.59;2086897;28;20041;-69
2022/01/04 04:50:54;;;;;;;5.72;1.60;;;;;;;19.47;38.76;98911.41;2086365;28;20619;-69
2022/01/04 04:51:59;;;;;;;4.20;1.70;;;;;;;19.47;38.76;98912.19;2086351;28;20068;-69
2022/01/04 04:53:05;;;;;;;4.38;1.75;;;;;;;19.49;38.67;98904.38;2092961;28;20584;-69
2022/01/04 04:54:13;;;;;;;4.47;1.80;;;;;;;19.48;38.81;98899.28;2095260;28;20063;-69
2022/01/04 04:55:20;;;;;;;6.30;1.90;;;;;;;19.49;38.89;98898.09;2086385;28;20049;-69
2022/01/04 04:56:23;;;;;;;6.65;1.90;;;;;;;19.47;38.83;98894.97;2086938;28;20516;-68
2022/01/04 04:57:30;;;;;;;7.68;1.60;;;;;;;19.47;39.21;98895.75;2085812;28;20072;-69
2022/01/04 04:58:33;;;;;;;4.32;1.65;;;;;;;19.47;38.44;98884.03;2086556;28;20364;-69
2022/01/04 04:59:38;;;;;;;6.40;1.90;;;;;;;19.45;38.71;98892.66;2095302;28;20048;-69
2022/01/04 05:00:44;;;;;;;4.63;1.70;;;;;;;19.40;38.80;98868.41;2094985;28;20049;-69
2022/01/04 05:01:48;;;;;;;6.05;1.90;;;;;;;19.51;38.68;98876.56;2094764;28;20056;-69
2022/01/04 05:02:53;;;;;;;4.45;1.70;;;;;;;19.51;38.58;98880.09;2094484;28;20064;-69
2022/01/04 05:03:56;;;;;;;4.63;1.75;;;;;;;19.48;38.75;98869.94;2094463;28;20067;-68
2022/01/04 05:05:02;;;;;;;5.72;1.80;;;;;;;19.50;38.56;98878.53;2094718;28;20052;-69
2022/01/04 05:06:07;;;;;;;5.38;1.83;;;;;;;19.49;38.66;98870.72;2095068;28;20044;-71
2022/01/04 05:07:12;;;;;;;5.15;1.85;;;;;;;19.47;38.57;98867.59;2086019;28;20079;-71
2022/01/04 05:08:17;;;;;;;7.53;1.80;;;;;;;19.45;38.66;98868.00;2086511;28;20048;-71
2022/01/04 05:09:24;;;;;;;4.72;1.88;;;;;;;19.51;39.22;98868.34;2093738;28;20049;-72
2022/01/04 05:10:31;;;;;;;4.53;1.42;;;;;;;19.59;39.39;98869.88;2094700;28;20040;-68
2022/01/04 05:11:34;;;;;;;6.72;1.77;;;;;;;19.67;39.55;98865.94;2092848;28;20623;-70
2022/01/04 05:12:38;;;;;;;5.65;1.55;;;;;;;19.76;39.66;98859.97;2095013;28;20040;-69
2022/01/04 05:13:41;;;;;;;5.65;1.50;;;;;;;19.85;39.71;98866.56;2086157;28;20076;-66
2022/01/04 05:14:47;;;;;;;5.90;1.80;;;;;;;19.95;39.93;98862.25;2079730;28;20057;-66
2022/01/04 05:15:53;;;;;;;3.15;1.60;;;;;;;20.04;39.90;98865.28;2086247;28;20064;-73
2022/01/04 05:16:57;;;;;;;3.53;1.52;;;;;;;20.15;40.01;98862.47;2089356;28;20060;-71